sensor_id;sensor_type;location;lat;lon;timestamp;pressure;altitude;pressure_sealevel;temperature;humidity
1207;BME280;593;53.184;8.216;2023-05-24T00:00:19;101832.88;;;12.71;81.50
1207;BME280;593;53.184;8.216;2023-05-24T00:02:46;101824.41;;;12.67;81.58
1207;BME280;593;53.184;8.216;2023-05-24T00:05:12;101820.03;;;12.66;81.74
1207;BME280;593;53.184;8.216;2023-05-24T00:07:39;101828.50;;;12.65;81.74
1207;BME280;593;53.184;8.216;2023-05-24T00:10:05;101820.00;;;12.61;82.41
1207;BME280;593;53.184;8.216;2023-05-24T00:12:31;101821.88;;;12.56;82.16
1207;BME280;593;53.184;8.216;2023-05-24T00:14:57;101826.00;;;12.58;82.58
1207;BME280;593;53.184;8.216;2023-05-24T00:17:23;101812.34;;;12.58;82.86
1207;BME280;593;53.184;8.216;2023-05-24T00:19:48;101815.59;;;12.55;82.93
1207;BME280;593;53.184;8.216;2023-05-24T00:22:14;101819.97;;;12.56;82.15
1207;BME280;593;53.184;8.216;2023-05-24T00:24:39;101807.38;;;12.50;82.67
1207;BME280;593;53.184;8.216;2023-05-24T00:27:05;101812.59;;;12.52;82.96
1207;BME280;593;53.184;8.216;2023-05-24T00:29:31;101805.47;;;12.46;82.74
1207;BME280;593;53.184;8.216;2023-05-24T00:31:56;101802.47;;;12.42;83.33
1207;BME280;593;53.184;8.216;2023-05-24T00:34:22;101806.81;;;12.43;84.25
1207;BME280;593;53.184;8.216;2023-05-24T00:36:47;101794.84;;;12.44;83.95
1207;BME280;593;53.184;8.216;2023-05-24T00:39:13;101801.38;;;12.43;84.14
1207;BME280;593;53.184;8.216;2023-05-24T00:41:38;101801.91;;;12.45;84.66
1207;BME280;593;53.184;8.216;2023-05-24T00:44:03;101794.28;;;12.42;84.39
1207;BME280;593;53.184;8.216;2023-05-24T00:46:31;101771.03;;;12.30;84.92
1207;BME280;593;53.184;8.216;2023-05-24T00:48:57;101791.56;;;12.42;84.92
1207;BME280;593;53.184;8.216;2023-05-24T00:51:24;101797.00;;;12.42;84.89
1207;BME280;593;53.184;8.216;2023-05-24T00:53:51;101794.28;;;12.42;84.68
1207;BME280;593;53.184;8.216;2023-05-24T00:56:16;101796.44;;;12.40;85.36
1207;BME280;593;53.184;8.216;2023-05-24T00:58:42;101800.28;;;12.39;85.89
1207;BME280;593;53.184;8.216;2023-05-24T01:01:08;101796.44;;;12.40;85.28
1207;BME280;593;53.184;8.216;2023-05-24T01:03:33;101805.72;;;12.39;85.80
1207;BME280;593;53.184;8.216;2023-05-24T01:06:01;101792.63;;;12.41;85.64
1207;BME280;593;53.184;8.216;2023-05-24T01:11:04;101800.53;;;12.38;85.31
1207;BME280;593;53.184;8.216;2023-05-24T01:13:36;101796.44;;;12.40;85.79
1207;BME280;593;53.184;8.216;2023-05-24T01:19:06;101792.09;;;12.39;86.35
1207;BME280;593;53.184;8.216;2023-05-24T01:27:23;101793.41;;;12.32;86.04
1207;BME280;593;53.184;8.216;2023-05-24T01:29:49;101788.22;;;12.35;86.67
1207;BME280;593;53.184;8.216;2023-05-24T01:32:20;101789.31;;;12.29;86.38
1207;BME280;593;53.184;8.216;2023-05-24T01:34:46;101789.34;;;12.34;86.33
1207;BME280;593;53.184;8.216;2023-05-24T01:37:12;101787.69;;;12.33;86.66
1207;BME280;593;53.184;8.216;2023-05-24T01:39:37;101787.69;;;12.33;86.98
1207;BME280;593;53.184;8.216;2023-05-24T01:47:18;101788.50;;;12.34;86.79
1207;BME280;593;53.184;8.216;2023-05-24T01:49:50;101784.13;;;12.33;86.35
1207;BME280;593;53.184;8.216;2023-05-24T01:52:22;101786.06;;;12.32;87.03
1207;BME280;593;53.184;8.216;2023-05-24T01:54:51;101779.47;;;12.28;87.24
1207;BME280;593;53.184;8.216;2023-05-24T01:57:18;101786.06;;;12.32;87.23
1207;BME280;593;53.184;8.216;2023-05-24T01:59:44;101787.13;;;12.31;87.57
1207;BME280;593;53.184;8.216;2023-05-24T02:02:10;101786.03;;;12.27;87.08
1207;BME280;593;53.184;8.216;2023-05-24T02:04:35;101781.38;;;12.28;87.45
1207;BME280;593;53.184;8.216;2023-05-24T02:07:01;101786.84;;;12.28;87.36
1207;BME280;593;53.184;8.216;2023-05-24T02:09:26;101786.84;;;12.28;87.54
1207;BME280;593;53.184;8.216;2023-05-24T02:11:51;101793.13;;;12.33;87.32
1207;BME280;593;53.184;8.216;2023-05-24T02:14:16;101786.84;;;12.33;87.98
1207;BME280;593;53.184;8.216;2023-05-24T02:16:44;101780.03;;;12.30;87.51
1207;BME280;593;53.184;8.216;2023-05-24T02:19:11;101780.31;;;12.29;87.59
1207;BME280;593;53.184;8.216;2023-05-24T02:21:36;101793.97;;;12.34;87.90
1207;BME280;593;53.184;8.216;2023-05-24T02:24:01;101788.78;;;12.32;87.92
1207;BME280;593;53.184;8.216;2023-05-24T02:26:27;101780.84;;;12.31;87.72
1207;BME280;593;53.184;8.216;2023-05-24T02:28:52;101780.84;;;12.31;87.84
1207;BME280;593;53.184;8.216;2023-05-24T02:31:17;101785.22;;;12.32;88.00
1207;BME280;593;53.184;8.216;2023-05-24T02:33:43;101782.50;;;12.32;88.08
1207;BME280;593;53.184;8.216;2023-05-24T02:36:08;101773.50;;;12.31;87.54
1207;BME280;593;53.184;8.216;2023-05-24T02:38:34;101767.50;;;12.29;88.46
1207;BME280;593;53.184;8.216;2023-05-24T02:40:59;101776.22;;;12.31;87.68
1207;BME280;593;53.184;8.216;2023-05-24T02:43:24;101767.50;;;12.29;87.79
1207;BME280;593;53.184;8.216;2023-05-24T02:45:49;101772.13;;;12.29;87.68
1207;BME280;593;53.184;8.216;2023-05-24T02:48:15;101773.78;;;12.30;88.20
1207;BME280;593;53.184;8.216;2023-05-24T02:50:40;101767.22;;;12.31;87.69
1207;BME280;593;53.184;8.216;2023-05-24T02:53:05;101772.66;;;12.31;88.10
1207;BME280;593;53.184;8.216;2023-05-24T02:55:31;101769.94;;;12.31;88.19
1207;BME280;593;53.184;8.216;2023-05-24T02:57:56;101756.28;;;12.26;88.31
1207;BME280;593;53.184;8.216;2023-05-24T03:00:22;101760.94;;;12.30;88.28
1207;BME280;593;53.184;8.216;2023-05-24T03:02:47;101759.56;;;12.28;88.44
1207;BME280;593;53.184;8.216;2023-05-24T03:05:17;101752.72;;;12.25;88.30
1207;BME280;593;53.184;8.216;2023-05-24T03:07:42;101751.34;;;12.22;88.58
1207;BME280;593;53.184;8.216;2023-05-24T03:10:08;101759.31;;;12.29;88.54
1207;BME280;593;53.184;8.216;2023-05-24T03:12:34;101756.56;;;12.29;88.88
1207;BME280;593;53.184;8.216;2023-05-24T03:14:59;101754.91;;;12.28;89.04
1207;BME280;593;53.184;8.216;2023-05-24T03:17:24;101751.13;;;12.29;89.14
1207;BME280;593;53.184;8.216;2023-05-24T03:19:50;101751.09;;;12.24;88.35
1207;BME280;593;53.184;8.216;2023-05-24T03:22:17;101769.09;;;12.30;89.29
1207;BME280;593;53.184;8.216;2023-05-24T03:24:42;101762.03;;;12.29;89.22
1207;BME280;593;53.184;8.216;2023-05-24T03:27:07;101755.47;;;12.30;89.11
1207;BME280;593;53.184;8.216;2023-05-24T03:29:32;101754.69;;;12.30;89.55
1207;BME280;593;53.184;8.216;2023-05-24T03:31:58;101750.00;;;12.25;89.31
1207;BME280;593;53.184;8.216;2023-05-24T03:34:23;101747.28;;;12.30;89.87
1207;BME280;593;53.184;8.216;2023-05-24T03:36:49;101756.56;;;12.29;89.58
1207;BME280;593;53.184;8.216;2023-05-24T03:39:14;101754.91;;;12.28;89.46
1207;BME280;593;53.184;8.216;2023-05-24T03:41:39;101756.56;;;12.29;89.95
1207;BME280;593;53.184;8.216;2023-05-24T03:44:05;101764.22;;;12.32;89.78
1207;BME280;593;53.184;8.216;2023-05-24T03:46:30;101760.13;;;12.30;89.84
1207;BME280;593;53.184;8.216;2023-05-24T03:48:56;101753.84;;;12.29;90.71
1207;BME280;593;53.184;8.216;2023-05-24T03:51:21;101756.56;;;12.29;89.60
1207;BME280;593;53.184;8.216;2023-05-24T03:53:54;101757.66;;;12.33;90.37
1207;BME280;593;53.184;8.216;2023-05-24T03:56:20;101759.03;;;12.31;89.74
1207;BME280;593;53.184;8.216;2023-05-24T03:58:46;101764.47;;;12.31;89.76
1207;BME280;593;53.184;8.216;2023-05-24T04:01:11;101758.19;;;12.30;90.02
1207;BME280;593;53.184;8.216;2023-05-24T04:03:37;101760.13;;;12.30;89.89
1207;BME280;593;53.184;8.216;2023-05-24T04:06:03;101758.19;;;12.30;90.08
1207;BME280;593;53.184;8.216;2023-05-24T04:08:28;101753.56;;;12.31;89.51
1207;BME280;593;53.184;8.216;2023-05-24T04:10:55;101762.56;;;12.31;89.65
1207;BME280;593;53.184;8.216;2023-05-24T04:13:21;101758.75;;;12.27;89.33
1207;BME280;593;53.184;8.216;2023-05-24T04:15:46;101761.47;;;12.27;89.98
1207;BME280;593;53.184;8.216;2023-05-24T04:18:11;101758.19;;;12.30;89.80
1207;BME280;593;53.184;8.216;2023-05-24T04:20:36;101754.38;;;12.26;90.49
1207;BME280;593;53.184;8.216;2023-05-24T04:23:02;101763.66;;;12.30;90.49
1207;BME280;593;53.184;8.216;2023-05-24T04:25:27;101753.56;;;12.31;90.31
1207;BME280;593;53.184;8.216;2023-05-24T04:27:53;101754.13;;;12.33;90.43
1207;BME280;593;53.184;8.216;2023-05-24T04:30:20;101755.78;;;12.34;90.70
1207;BME280;593;53.184;8.216;2023-05-24T04:32:46;101756.28;;;12.31;91.08
1207;BME280;593;53.184;8.216;2023-05-24T04:35:12;101759.03;;;12.36;91.22
1207;BME280;593;53.184;8.216;2023-05-24T04:37:38;101763.44;;;12.37;91.02
1207;BME280;593;53.184;8.216;2023-05-24T04:40:05;101762.31;;;12.38;90.98
1207;BME280;593;53.184;8.216;2023-05-24T04:42:32;101775.44;;;12.41;91.61
1207;BME280;593;53.184;8.216;2023-05-24T04:44:57;101773.25;;;12.43;91.51
1207;BME280;593;53.184;8.216;2023-05-24T04:47:23;101771.09;;;12.45;91.04
1207;BME280;593;53.184;8.216;2023-05-24T04:49:48;101779.56;;;12.48;91.10
1207;BME280;593;53.184;8.216;2023-05-24T04:52:15;101779.00;;;12.46;91.45
1207;BME280;593;53.184;8.216;2023-05-24T04:54:40;101782.59;;;12.52;90.66
1207;BME280;593;53.184;8.216;2023-05-24T04:57:05;101779.31;;;12.50;91.37
1207;BME280;593;53.184;8.216;2023-05-24T04:59:31;101777.13;;;12.52;91.00
1207;BME280;593;53.184;8.216;2023-05-24T05:01:56;101779.56;;;12.53;90.82
1207;BME280;593;53.184;8.216;2023-05-24T05:04:22;101789.13;;;12.56;90.98
1207;BME280;593;53.184;8.216;2023-05-24T05:06:47;101793.78;;;12.60;91.17
1207;BME280;593;53.184;8.216;2023-05-24T05:09:13;101793.25;;;12.58;91.13
1207;BME280;593;53.184;8.216;2023-05-24T05:11:39;101788.06;;;12.62;90.72
1207;BME280;593;53.184;8.216;2023-05-24T05:14:05;101788.09;;;12.67;90.67
1207;BME280;593;53.184;8.216;2023-05-24T05:16:33;101790.53;;;12.68;90.79
1207;BME280;593;53.184;8.216;2023-05-24T05:18:58;101800.09;;;12.71;90.82
1207;BME280;593;53.184;8.216;2023-05-24T05:21:24;101809.94;;;12.72;90.42
1207;BME280;593;53.184;8.216;2023-05-24T05:23:52;101803.13;;;12.74;91.12
1207;BME280;593;53.184;8.216;2023-05-24T05:26:18;101800.94;;;12.76;91.23
1207;BME280;593;53.184;8.216;2023-05-24T05:28:44;101802.03;;;12.75;91.26
1207;BME280;593;53.184;8.216;2023-05-24T05:31:09;101799.06;;;12.82;91.36
1207;BME280;593;53.184;8.216;2023-05-24T05:33:34;101796.88;;;12.84;91.40
1207;BME280;593;53.184;8.216;2023-05-24T05:36:00;101803.41;;;12.88;91.92
1207;BME280;593;53.184;8.216;2023-05-24T05:38:25;101801.81;;;12.87;91.38
1207;BME280;593;53.184;8.216;2023-05-24T05:40:51;101811.63;;;12.88;92.17
1207;BME280;593;53.184;8.216;2023-05-24T05:43:16;101806.97;;;12.88;91.94
1207;BME280;593;53.184;8.216;2023-05-24T05:45:41;101807.53;;;12.96;92.16
1207;BME280;593;53.184;8.216;2023-05-24T05:48:06;101791.44;;;12.94;92.67
1207;BME280;593;53.184;8.216;2023-05-24T05:50:32;101793.63;;;12.97;93.09
1207;BME280;593;53.184;8.216;2023-05-24T05:52:57;101796.06;;;12.99;92.91
1207;BME280;593;53.184;8.216;2023-05-24T05:55:30;101788.72;;;12.99;92.59
1207;BME280;593;53.184;8.216;2023-05-24T05:57:57;101781.88;;;12.97;93.46
1207;BME280;593;53.184;8.216;2023-05-24T06:00:23;101793.63;;;13.02;93.34
1207;BME280;593;53.184;8.216;2023-05-24T06:02:48;101806.50;;;13.07;93.43
1207;BME280;593;53.184;8.216;2023-05-24T06:05:13;101805.41;;;13.08;92.54
1207;BME280;593;53.184;8.216;2023-05-24T06:07:38;101815.78;;;13.11;92.02
1207;BME280;593;53.184;8.216;2023-05-24T06:10:05;101814.72;;;13.12;92.38
1207;BME280;593;53.184;8.216;2023-05-24T06:12:30;101810.63;;;13.14;92.29
1207;BME280;593;53.184;8.216;2023-05-24T06:14:56;101820.19;;;13.17;92.15
1207;BME280;593;53.184;8.216;2023-05-24T06:17:21;101816.34;;;13.18;92.29
1207;BME280;593;53.184;8.216;2023-05-24T06:19:49;101825.91;;;13.20;92.53
1207;BME280;593;53.184;8.216;2023-05-24T06:22:14;101822.94;;;13.22;91.92
1207;BME280;593;53.184;8.216;2023-05-24T06:24:39;101812.25;;;13.20;92.60
1207;BME280;593;53.184;8.216;2023-05-24T06:27:04;101824.00;;;13.26;92.08
1207;BME280;593;53.184;8.216;2023-05-24T06:29:30;101825.66;;;13.27;91.92
1207;BME280;593;53.184;8.216;2023-05-24T06:31:55;101819.91;;;13.28;92.43
1207;BME280;593;53.184;8.216;2023-05-24T06:34:21;101813.63;;;13.28;91.79
1207;BME280;593;53.184;8.216;2023-05-24T06:36:46;101823.19;;;13.35;92.50
1207;BME280;593;53.184;8.216;2023-05-24T06:39:13;101818.56;;;13.36;92.28
1207;BME280;593;53.184;8.216;2023-05-24T06:41:39;101821.56;;;13.39;91.88
1207;BME280;593;53.184;8.216;2023-05-24T06:44:05;101813.63;;;13.38;91.10
1207;BME280;593;53.184;8.216;2023-05-24T06:46:30;101818.56;;;13.41;91.00
1207;BME280;593;53.184;8.216;2023-05-24T06:48:56;101814.75;;;13.42;91.14
1207;BME280;593;53.184;8.216;2023-05-24T06:51:22;101815.28;;;13.49;90.90
1207;BME280;593;53.184;8.216;2023-05-24T06:53:47;101810.91;;;13.48;91.00
1207;BME280;593;53.184;8.216;2023-05-24T06:56:12;101814.75;;;13.52;90.75
1207;BME280;593;53.184;8.216;2023-05-24T06:58:39;101820.47;;;13.56;90.96
1207;BME280;593;53.184;8.216;2023-05-24T07:01:04;101825.13;;;13.55;90.90
1207;BME280;593;53.184;8.216;2023-05-24T07:03:30;101834.13;;;13.61;91.16
1207;BME280;593;53.184;8.216;2023-05-24T07:05:56;101836.63;;;13.62;90.52
1207;BME280;593;53.184;8.216;2023-05-24T07:08:22;101848.63;;;13.66;91.25
1207;BME280;593;53.184;8.216;2023-05-24T07:10:47;101844.53;;;13.69;90.86
1207;BME280;593;53.184;8.216;2023-05-24T07:13:12;101847.56;;;13.72;90.41
1207;BME280;593;53.184;8.216;2023-05-24T07:15:41;101848.38;;;13.73;89.91
1207;BME280;593;53.184;8.216;2023-05-24T07:18:06;101857.66;;;13.77;90.69
1207;BME280;593;53.184;8.216;2023-05-24T07:20:31;101860.94;;;13.79;90.48
1207;BME280;593;53.184;8.216;2023-05-24T07:22:57;101856.53;;;13.78;90.25
1207;BME280;593;53.184;8.216;2023-05-24T07:25:24;101863.66;;;13.84;90.13
1207;BME280;593;53.184;8.216;2023-05-24T07:27:49;101863.13;;;13.87;90.04
1207;BME280;593;53.184;8.216;2023-05-24T07:30:15;101856.53;;;13.88;89.86
1207;BME280;593;53.184;8.216;2023-05-24T07:32:41;101851.06;;;13.88;89.41
1207;BME280;593;53.184;8.216;2023-05-24T07:35:06;101854.09;;;13.91;89.55
1207;BME280;593;53.184;8.216;2023-05-24T07:37:32;101851.06;;;13.93;88.81
1207;BME280;593;53.184;8.216;2023-05-24T07:39:57;101853.00;;;13.97;89.42
1207;BME280;593;53.184;8.216;2023-05-24T07:42:22;101863.13;;;14.02;88.65
1207;BME280;593;53.184;8.216;2023-05-24T07:44:48;101858.47;;;14.02;88.91
1207;BME280;593;53.184;8.216;2023-05-24T07:47:13;101853.00;;;14.02;88.92
1207;BME280;593;53.184;8.216;2023-05-24T07:49:38;101870.47;;;14.06;88.28
1207;BME280;593;53.184;8.216;2023-05-24T07:52:04;101866.38;;;14.09;88.59
1207;BME280;593;53.184;8.216;2023-05-24T07:54:30;101859.25;;;14.08;88.24
1207;BME280;593;53.184;8.216;2023-05-24T07:56:55;101863.63;;;14.14;88.18
1207;BME280;593;53.184;8.216;2023-05-24T07:59:22;101870.47;;;14.17;88.12
1207;BME280;593;53.184;8.216;2023-05-24T08:01:48;101871.00;;;14.19;87.73
1207;BME280;593;53.184;8.216;2023-05-24T08:04:13;101863.63;;;14.19;87.48
1207;BME280;593;53.184;8.216;2023-05-24T08:06:39;101866.91;;;14.21;87.01
1207;BME280;593;53.184;8.216;2023-05-24T08:09:04;101872.34;;;14.26;87.27
1207;BME280;593;53.184;8.216;2023-05-24T08:11:31;101876.47;;;14.29;87.10
1207;BME280;593;53.184;8.216;2023-05-24T08:13:56;101868.81;;;14.31;87.03
1207;BME280;593;53.184;8.216;2023-05-24T08:16:22;101875.09;;;14.36;86.84
1207;BME280;593;53.184;8.216;2023-05-24T08:18:48;101880.03;;;14.39;86.65
1207;BME280;593;53.184;8.216;2023-05-24T08:21:13;101875.63;;;14.43;85.90
1207;BME280;593;53.184;8.216;2023-05-24T08:23:38;101877.81;;;14.46;86.17
1207;BME280;593;53.184;8.216;2023-05-24T08:26:04;101862.22;;;14.47;86.50
1207;BME280;593;53.184;8.216;2023-05-24T08:28:29;101866.59;;;14.48;86.54
1207;BME280;593;53.184;8.216;2023-05-24T08:30:54;101876.16;;;14.55;86.18
1207;BME280;593;53.184;8.216;2023-05-24T08:33:20;101876.41;;;14.59;85.70
1207;BME280;593;53.184;8.216;2023-05-24T08:35:47;101877.22;;;14.59;86.38
1207;BME280;593;53.184;8.216;2023-05-24T08:38:13;101880.78;;;14.65;85.95
1207;BME280;593;53.184;8.216;2023-05-24T08:40:38;101879.66;;;14.66;85.44
1207;BME280;593;53.184;8.216;2023-05-24T08:43:04;101890.03;;;14.74;85.35
1207;BME280;593;53.184;8.216;2023-05-24T08:45:36;101892.22;;;14.77;85.27
1207;BME280;593;53.184;8.216;2023-05-24T08:48:02;101900.97;;;14.79;85.28
1207;BME280;593;53.184;8.216;2023-05-24T08:50:30;101905.63;;;14.84;85.02
1207;BME280;593;53.184;8.216;2023-05-24T08:52:57;101903.97;;;14.88;84.81
1207;BME280;593;53.184;8.216;2023-05-24T08:55:23;101902.59;;;14.90;84.36
1207;BME280;593;53.184;8.216;2023-05-24T08:57:49;101908.84;;;14.96;84.22
1207;BME280;593;53.184;8.216;2023-05-24T09:00:15;101904.50;;;14.95;84.36
1207;BME280;593;53.184;8.216;2023-05-24T09:02:42;101908.03;;;15.00;84.08
1207;BME280;593;53.184;8.216;2023-05-24T09:05:12;101911.84;;;15.04;83.78
1207;BME280;593;53.184;8.216;2023-05-24T09:07:43;101919.50;;;15.07;83.84
1207;BME280;593;53.184;8.216;2023-05-24T09:10:09;101914.25;;;15.11;84.27
1207;BME280;593;53.184;8.216;2023-05-24T09:12:39;101916.44;;;15.14;83.48
1207;BME280;593;53.184;8.216;2023-05-24T09:15:06;101914.22;;;15.16;83.28
1207;BME280;593;53.184;8.216;2023-05-24T09:17:31;101918.88;;;15.20;84.27
1207;BME280;593;53.184;8.216;2023-05-24T09:19:58;101914.19;;;15.21;83.84
1207;BME280;593;53.184;8.216;2023-05-24T09:22:26;101908.16;;;15.24;83.33
1207;BME280;593;53.184;8.216;2023-05-24T09:24:52;101916.88;;;15.31;83.40
1207;BME280;593;53.184;8.216;2023-05-24T09:27:18;101915.50;;;15.33;84.09
1207;BME280;593;53.184;8.216;2023-05-24T09:29:48;101923.69;;;15.38;83.63
1207;BME280;593;53.184;8.216;2023-05-24T09:32:14;101923.44;;;15.40;83.73
1207;BME280;593;53.184;8.216;2023-05-24T09:34:41;101927.25;;;15.44;83.52
1207;BME280;593;53.184;8.216;2023-05-24T09:37:12;101933.28;;;15.46;83.54
1207;BME280;593;53.184;8.216;2023-05-24T09:39:40;101928.88;;;15.50;83.24
1207;BME280;593;53.184;8.216;2023-05-24T09:42:06;101926.66;;;15.52;83.20
1207;BME280;593;53.184;8.216;2023-05-24T09:44:32;101927.72;;;15.56;83.23
1207;BME280;593;53.184;8.216;2023-05-24T09:47:01;101928.81;;;15.60;83.35
1207;BME280;593;53.184;8.216;2023-05-24T09:49:30;101930.19;;;15.63;82.77
1207;BME280;593;53.184;8.216;2023-05-24T09:51:56;101930.13;;;15.68;82.56
1207;BME280;593;53.184;8.216;2023-05-24T09:54:23;101924.06;;;15.71;82.45
1207;BME280;593;53.184;8.216;2023-05-24T09:56:50;101919.41;;;15.71;82.44
1207;BME280;593;53.184;8.216;2023-05-24T09:59:15;101923.75;;;15.77;81.75
1207;BME280;593;53.184;8.216;2023-05-24T10:01:41;101930.03;;;15.83;82.03
1207;BME280;593;53.184;8.216;2023-05-24T10:04:06;101929.72;;;15.84;81.79
1207;BME280;593;53.184;8.216;2023-05-24T10:06:35;101926.69;;;15.86;81.48
1207;BME280;593;53.184;8.216;2023-05-24T10:09:04;101924.19;;;15.89;81.39
1207;BME280;593;53.184;8.216;2023-05-24T10:11:35;101930.69;;;15.98;81.64
1207;BME280;593;53.184;8.216;2023-05-24T10:14:03;101923.53;;;16.02;81.63
1207;BME280;593;53.184;8.216;2023-05-24T10:16:28;101932.00;;;16.06;80.82
1207;BME280;593;53.184;8.216;2023-05-24T10:18:54;101936.66;;;16.11;80.57
1207;BME280;593;53.184;8.216;2023-05-24T10:21:22;101940.47;;;16.15;80.42
1207;BME280;593;53.184;8.216;2023-05-24T10:23:50;101939.59;;;16.19;80.59
1207;BME280;593;53.184;8.216;2023-05-24T10:26:23;101931.34;;;16.19;79.79
1207;BME280;593;53.184;8.216;2023-05-24T10:28:58;101937.63;;;16.25;80.01
1207;BME280;593;53.184;8.216;2023-05-24T10:31:37;101938.09;;;16.32;79.91
1207;BME280;593;53.184;8.216;2023-05-24T10:34:05;101957.28;;;16.37;79.78
1207;BME280;593;53.184;8.216;2023-05-24T10:36:31;101951.19;;;16.40;79.63
1207;BME280;593;53.184;8.216;2023-05-24T10:38:57;101954.78;;;16.40;78.96
1207;BME280;593;53.184;8.216;2023-05-24T10:41:25;101946.50;;;16.45;78.36
1207;BME280;593;53.184;8.216;2023-05-24T10:43:52;101950.59;;;16.48;77.94
1207;BME280;593;53.184;8.216;2023-05-24T10:46:17;101921.03;;;16.35;77.41
1207;BME280;593;53.184;8.216;2023-05-24T10:48:58;101946.69;;;16.54;76.80
1207;BME280;593;53.184;8.216;2023-05-24T10:51:29;101943.38;;;16.57;77.07
1207;BME280;593;53.184;8.216;2023-05-24T10:53:57;101943.06;;;16.58;76.96
1207;BME280;593;53.184;8.216;2023-05-24T10:56:22;101944.34;;;16.66;77.34
1207;BME280;593;53.184;8.216;2023-05-24T11:01:30;101941.28;;;16.73;77.93
1207;BME280;593;53.184;8.216;2023-05-24T11:04:17;101943.44;;;16.76;77.55
1207;BME280;593;53.184;8.216;2023-05-24T11:09:14;101942.56;;;16.80;76.71
1207;BME280;593;53.184;8.216;2023-05-24T11:11:43;101942.50;;;16.85;76.71
1207;BME280;593;53.184;8.216;2023-05-24T11:14:10;101943.34;;;16.86;76.44
1207;BME280;593;53.184;8.216;2023-05-24T11:16:37;101952.09;;;16.88;76.48
1207;BME280;593;53.184;8.216;2023-05-24T11:19:17;101946.53;;;16.93;76.16
1207;BME280;593;53.184;8.216;2023-05-24T11:21:44;101948.09;;;16.99;76.27
1207;BME280;593;53.184;8.216;2023-05-24T11:24:10;101951.91;;;17.03;75.50
1207;BME280;593;53.184;8.216;2023-05-24T11:26:36;101944.75;;;17.02;75.79
1207;BME280;593;53.184;8.216;2023-05-24T11:29:02;101951.53;;;17.09;75.34
1207;BME280;593;53.184;8.216;2023-05-24T11:31:28;101947.13;;;17.13;75.66
1207;BME280;593;53.184;8.216;2023-05-24T11:33:53;101949.56;;;17.15;75.54
1207;BME280;593;53.184;8.216;2023-05-24T11:36:19;101948.34;;;17.21;75.79
1207;BME280;593;53.184;8.216;2023-05-24T11:38:45;101945.09;;;17.19;75.91
1207;BME280;593;53.184;8.216;2023-05-24T11:41:12;101953.50;;;17.27;75.73
1207;BME280;593;53.184;8.216;2023-05-24T11:43:37;101951.28;;;17.29;75.50
1207;BME280;593;53.184;8.216;2023-05-24T11:46:02;101959.16;;;17.36;75.38
1207;BME280;593;53.184;8.216;2023-05-24T11:48:28;101952.56;;;17.37;74.68
1207;BME280;593;53.184;8.216;2023-05-24T11:50:55;101953.00;;;17.44;74.24
1207;BME280;593;53.184;8.216;2023-05-24T11:53:20;101960.66;;;17.47;74.07
1207;BME280;593;53.184;8.216;2023-05-24T11:55:46;101958.69;;;17.53;74.20
1207;BME280;593;53.184;8.216;2023-05-24T12:00:41;101959.66;;;17.62;73.03
1207;BME280;593;53.184;8.216;2023-05-24T12:03:07;101959.88;;;17.65;72.79
1207;BME280;593;53.184;8.216;2023-05-24T12:05:33;101945.81;;;17.67;72.56
1207;BME280;593;53.184;8.216;2023-05-24T12:08:09;101947.66;;;17.71;71.73
1207;BME280;593;53.184;8.216;2023-05-24T12:10:37;101948.50;;;17.72;71.64
1207;BME280;593;53.184;8.216;2023-05-24T12:13:04;101956.41;;;17.78;71.31
1207;BME280;593;53.184;8.216;2023-05-24T12:15:29;101957.41;;;17.82;71.34
1207;BME280;593;53.184;8.216;2023-05-24T12:17:56;101954.06;;;17.85;71.01
1207;BME280;593;53.184;8.216;2023-05-24T12:20:22;101957.56;;;17.91;71.43
1207;BME280;593;53.184;8.216;2023-05-24T12:22:50;101960.25;;;17.96;71.86
1207;BME280;593;53.184;8.216;2023-05-24T12:25:19;101967.59;;;18.01;71.63
1207;BME280;593;53.184;8.216;2023-05-24T12:27:46;101971.69;;;18.03;71.37
1207;BME280;593;53.184;8.216;2023-05-24T12:30:14;101971.09;;;18.06;70.43
1207;BME280;593;53.184;8.216;2023-05-24T12:32:44;101965.59;;;18.06;69.49
1207;BME280;593;53.184;8.216;2023-05-24T12:35:11;101972.13;;;18.10;69.35
1207;BME280;593;53.184;8.216;2023-05-24T12:37:36;101973.66;;;18.16;69.33
1207;BME280;593;53.184;8.216;2023-05-24T12:40:02;101977.75;;;18.19;68.79
1207;BME280;593;53.184;8.216;2023-05-24T12:42:29;101980.41;;;18.24;68.70
1207;BME280;593;53.184;8.216;2023-05-24T12:44:54;101971.56;;;18.27;69.22
1207;BME280;593;53.184;8.216;2023-05-24T12:47:20;101983.63;;;18.31;68.88
1207;BME280;593;53.184;8.216;2023-05-24T12:49:45;101973.63;;;18.35;69.13
1207;BME280;593;53.184;8.216;2023-05-24T12:52:11;101978.53;;;18.38;69.42
1207;BME280;593;53.184;8.216;2023-05-24T12:54:37;101981.78;;;18.40;68.98
1207;BME280;593;53.184;8.216;2023-05-24T12:57:02;101982.03;;;18.43;68.83
1207;BME280;593;53.184;8.216;2023-05-24T12:59:28;101970.19;;;18.43;68.21
1207;BME280;593;53.184;8.216;2023-05-24T13:01:53;101974.88;;;18.42;67.54
1207;BME280;593;53.184;8.216;2023-05-24T13:04:20;101981.41;;;18.46;67.83
1207;BME280;593;53.184;8.216;2023-05-24T13:06:46;101982.25;;;18.47;66.83
1207;BME280;593;53.184;8.216;2023-05-24T13:09:12;101985.22;;;18.50;67.08
1207;BME280;593;53.184;8.216;2023-05-24T13:11:38;101979.41;;;18.52;66.89
1207;BME280;593;53.184;8.216;2023-05-24T13:14:04;101981.66;;;18.50;66.97
1207;BME280;593;53.184;8.216;2023-05-24T13:16:30;101990.66;;;18.55;67.80
1207;BME280;593;53.184;8.216;2023-05-24T13:18:55;101990.94;;;18.54;67.49
1207;BME280;593;53.184;8.216;2023-05-24T13:21:21;101989.50;;;18.56;67.14
1207;BME280;593;53.184;8.216;2023-05-24T13:23:47;101983.50;;;18.54;66.71
1207;BME280;593;53.184;8.216;2023-05-24T13:26:12;101988.09;;;18.59;66.60
1207;BME280;593;53.184;8.216;2023-05-24T13:28:38;101981.78;;;18.59;66.29
1207;BME280;593;53.184;8.216;2023-05-24T13:31:04;101986.47;;;18.58;66.36
1207;BME280;593;53.184;8.216;2023-05-24T13:33:30;101982.56;;;18.59;66.36
1207;BME280;593;53.184;8.216;2023-05-24T13:35:56;101993.91;;;18.58;66.92
1207;BME280;593;53.184;8.216;2023-05-24T13:38:22;101980.63;;;18.60;66.63
1207;BME280;593;53.184;8.216;2023-05-24T13:40:48;101988.63;;;18.61;67.14